sensor_id;sensor_type;location;lat;lon;timestamp;P1;durP1;ratioP1;P2;durP2;ratioP2
50563;SDS011;36514;52.590;21.448;2023-04-24T00:02:25;972.19;;;760.24;;
50563;SDS011;36514;52.590;21.448;2023-04-24T00:12:22;959.48;;;817.18;;
50563;SDS011;36514;52.590;21.448;2023-04-24T00:22:18;1218.09;;;957.35;;
50563;SDS011;36514;52.590;21.448;2023-04-24T00:32:16;944.25;;;804.32;;
50563;SDS011;36514;52.590;21.448;2023-04-24T00:42:12;1096.84;;;814.74;;
50563;SDS011;36514;52.590;21.448;2023-04-24T00:52:08;1140.18;;;796.95;;
50563;SDS011;36514;52.590;21.448;2023-04-24T01:02:07;916.06;;;728.25;;
50563;SDS011;36514;52.590;21.448;2023-04-24T01:12:03;972.85;;;848.51;;
50563;SDS011;36514;52.590;21.448;2023-04-24T01:21:59;1001.48;;;870.37;;
50563;SDS011;36514;52.590;21.448;2023-04-24T01:31:57;965.28;;;856.06;;
50563;SDS011;36514;52.590;21.448;2023-04-24T05:22:42;1758.45;;;894.06;;
50563;SDS011;36514;52.590;21.448;2023-04-24T05:32:45;1104.65;;;833.64;;
50563;SDS011;36514;52.590;21.448;2023-04-24T05:42:46;707.47;;;654.06;;
50563;SDS011;36514;52.590;21.448;2023-04-24T05:52:44;568.05;;;524.92;;
50563;SDS011;36514;52.590;21.448;2023-04-24T06:02:42;503.44;;;467.65;;
50563;SDS011;36514;52.590;21.448;2023-04-24T06:12:41;375.43;;;351.15;;
50563;SDS011;36514;52.590;21.448;2023-04-24T06:22:40;421.79;;;391.75;;
50563;SDS011;36514;52.590;21.448;2023-04-24T06:32:39;493.26;;;446.23;;
50563;SDS011;36514;52.590;21.448;2023-04-24T06:42:39;837.56;;;758.67;;
50563;SDS011;36514;52.590;21.448;2023-04-24T06:52:40;1046.45;;;866.78;;
50563;SDS011;36514;52.590;21.448;2023-04-24T07:02:44;894.19;;;807.82;;
50563;SDS011;36514;52.590;21.448;2023-04-24T07:12:46;1385.83;;;952.12;;
50563;SDS011;36514;52.590;21.448;2023-04-24T07:22:44;1074.03;;;944.59;;
50563;SDS011;36514;52.590;21.448;2023-04-24T07:32:39;1275.65;;;962.12;;
50563;SDS011;36514;52.590;21.448;2023-04-24T07:42:37;1495.27;;;974.53;;
50563;SDS011;36514;52.590;21.448;2023-04-24T07:52:31;1611.27;;;964.87;;
50563;SDS011;36514;52.590;21.448;2023-04-24T08:02:35;1371.06;;;972.31;;
50563;SDS011;36514;52.590;21.448;2023-04-24T08:12:48;1049.73;;;938.57;;
50563;SDS011;36514;52.590;21.448;2023-04-24T08:22:47;1085.55;;;954.02;;
50563;SDS011;36514;52.590;21.448;2023-04-24T08:33:09;1154.19;;;955.99;;
50563;SDS011;36514;52.590;21.448;2023-04-24T08:43:12;1168.33;;;955.97;;
50563;SDS011;36514;52.590;21.448;2023-04-24T08:53:18;1237.51;;;972.01;;
50563;SDS011;36514;52.590;21.448;2023-04-24T09:03:02;1181.74;;;966.53;;
50563;SDS011;36514;52.590;21.448;2023-04-24T09:13:07;1302.05;;;962.93;;
50563;SDS011;36514;52.590;21.448;2023-04-24T09:23:00;1265.26;;;968.27;;
50563;SDS011;36514;52.590;21.448;2023-04-24T09:33:14;1090.55;;;943.51;;
50563;SDS011;36514;52.590;21.448;2023-04-24T09:43:17;1177.33;;;912.29;;
50563;SDS011;36514;52.590;21.448;2023-04-24T09:53:23;1277.95;;;935.20;;
50563;SDS011;36514;52.590;21.448;2023-04-24T10:03:24;1230.85;;;938.10;;
50563;SDS011;36514;52.590;21.448;2023-04-24T10:13:22;1097.59;;;923.01;;
50563;SDS011;36514;52.590;21.448;2023-04-24T10:23:09;1187.18;;;963.72;;
50563;SDS011;36514;52.590;21.448;2023-04-24T10:33:19;1179.02;;;940.92;;
50563;SDS011;36514;52.590;21.448;2023-04-24T10:42:49;1251.01;;;957.07;;
50563;SDS011;36514;52.590;21.448;2023-04-24T10:52:44;1283.92;;;962.45;;
50563;SDS011;36514;52.590;21.448;2023-04-24T11:02:36;1320.23;;;971.23;;
50563;SDS011;36514;52.590;21.448;2023-04-24T11:13:16;1155.00;;;937.14;;
50563;SDS011;36514;52.590;21.448;2023-04-24T11:22:47;1341.55;;;974.75;;
50563;SDS011;36514;52.590;21.448;2023-04-24T11:32:47;1250.18;;;963.10;;
50563;SDS011;36514;52.590;21.448;2023-04-24T11:43:08;709.46;;;654.45;;
50563;SDS011;36514;52.590;21.448;2023-04-24T11:52:59;811.38;;;737.48;;
50563;SDS011;36514;52.590;21.448;2023-04-24T12:02:41;803.25;;;739.63;;
50563;SDS011;36514;52.590;21.448;2023-04-24T12:12:50;807.23;;;742.77;;
50563;SDS011;36514;52.590;21.448;2023-04-24T12:22:44;840.15;;;766.74;;
50563;SDS011;36514;52.590;21.448;2023-04-24T12:32:48;1374.07;;;891.72;;
50563;SDS011;36514;52.590;21.448;2023-04-24T12:42:48;1436.25;;;931.80;;
50563;SDS011;36514;52.590;21.448;2023-04-24T12:52:45;1132.32;;;889.29;;
50563;SDS011;36514;52.590;21.448;2023-04-24T13:02:53;1365.81;;;893.83;;
50563;SDS011;36514;52.590;21.448;2023-04-24T13:13:09;887.53;;;806.29;;
50563;SDS011;36514;52.590;21.448;2023-04-24T13:23:01;867.79;;;790.03;;
50563;SDS011;36514;52.590;21.448;2023-04-24T13:32:52;1203.04;;;872.46;;
50563;SDS011;36514;52.590;21.448;2023-04-24T13:42:49;1499.00;;;898.97;;
50563;SDS011;36514;52.590;21.448;2023-04-24T13:52:44;1739.33;;;932.25;;
50563;SDS011;36514;52.590;21.448;2023-04-24T14:02:35;1513.90;;;913.59;;
50563;SDS011;36514;52.590;21.448;2023-04-24T14:12:31;771.25;;;692.52;;
50563;SDS011;36514;52.590;21.448;2023-04-24T14:22:29;1351.76;;;905.88;;
50563;SDS011;36514;52.590;21.448;2023-04-24T14:32:25;1069.18;;;856.55;;
50563;SDS011;36514;52.590;21.448;2023-04-24T14:42:21;442.05;;;353.09;;
50563;SDS011;36514;52.590;21.448;2023-04-24T14:52:18;603.91;;;553.82;;
50563;SDS011;36514;52.590;21.448;2023-04-24T15:02:16;687.54;;;631.87;;
50563;SDS011;36514;52.590;21.448;2023-04-24T15:12:21;303.50;;;283.82;;
50563;SDS011;36514;52.590;21.448;2023-04-24T15:22:38;140.63;;;122.38;;
50563;SDS011;36514;52.590;21.448;2023-04-24T15:32:44;1403.25;;;888.90;;
50563;SDS011;36514;52.590;21.448;2023-04-24T15:42:44;1175.49;;;875.54;;
50563;SDS011;36514;52.590;21.448;2023-04-24T15:52:44;828.13;;;758.70;;
50563;SDS011;36514;52.590;21.448;2023-04-24T16:02:41;769.53;;;712.15;;
50563;SDS011;36514;52.590;21.448;2023-04-24T16:12:38;746.02;;;691.16;;
50563;SDS011;36514;52.590;21.448;2023-04-24T16:22:28;921.69;;;829.39;;
50563;SDS011;36514;52.590;21.448;2023-04-24T16:32:22;1424.45;;;892.69;;
50563;SDS011;36514;52.590;21.448;2023-04-24T16:42:15;1316.31;;;929.78;;
50563;SDS011;36514;52.590;21.448;2023-04-24T16:52:09;714.98;;;627.90;;
50563;SDS011;36514;52.590;21.448;2023-04-24T17:02:03;209.73;;;189.58;;
50563;SDS011;36514;52.590;21.448;2023-04-24T17:11:59;123.67;;;110.45;;
50563;SDS011;36514;52.590;21.448;2023-04-24T17:21:49;170.90;;;132.48;;
50563;SDS011;36514;52.590;21.448;2023-04-24T17:31:46;195.51;;;179.49;;
50563;SDS011;36514;52.590;21.448;2023-04-24T17:41:40;136.96;;;127.99;;
50563;SDS011;36514;52.590;21.448;2023-04-24T17:51:39;210.16;;;193.57;;
50563;SDS011;36514;52.590;21.448;2023-04-24T18:01:35;581.03;;;541.63;;
50563;SDS011;36514;52.590;21.448;2023-04-24T18:11:31;739.63;;;688.64;;
50563;SDS011;36514;52.590;21.448;2023-04-24T18:21:28;727.58;;;678.82;;
50563;SDS011;36514;52.590;21.448;2023-04-24T18:31:26;700.38;;;649.34;;
50563;SDS011;36514;52.590;21.448;2023-04-24T18:41:23;742.42;;;689.12;;
50563;SDS011;36514;52.590;21.448;2023-04-24T18:51:21;704.35;;;654.04;;
50563;SDS011;36514;52.590;21.448;2023-04-24T19:01:19;787.10;;;724.85;;
50563;SDS011;36514;52.590;21.448;2023-04-24T19:11:19;743.20;;;688.02;;
50563;SDS011;36514;52.590;21.448;2023-04-24T19:21:16;798.87;;;737.69;;
50563;SDS011;36514;52.590;21.448;2023-04-24T19:31:13;969.86;;;861.83;;
50563;SDS011;36514;52.590;21.448;2023-04-24T19:41:11;1569.67;;;932.11;;
50563;SDS011;36514;52.590;21.448;2023-04-24T19:51:07;1930.67;;;972.70;;
50563;SDS011;36514;52.590;21.448;2023-04-24T20:01:05;1778.75;;;947.66;;
50563;SDS011;36514;52.590;21.448;2023-04-24T20:11:01;1861.07;;;957.60;;
50563;SDS011;36514;52.590;21.448;2023-04-24T20:20:59;1987.99;;;979.59;;
50563;SDS011;36514;52.590;21.448;2023-04-24T20:30:56;1959.22;;;987.23;;
50563;SDS011;36514;52.590;21.448;2023-04-24T20:40:54;1823.45;;;954.49;;
50563;SDS011;36514;52.590;21.448;2023-04-24T20:50:51;1876.30;;;958.94;;
50563;SDS011;36514;52.590;21.448;2023-04-24T21:00:47;1684.38;;;983.20;;
50563;SDS011;36514;52.590;21.448;2023-04-24T21:10:49;1651.48;;;976.64;;
50563;SDS011;36514;52.590;21.448;2023-04-24T21:20:46;1636.44;;;973.48;;
50563;SDS011;36514;52.590;21.448;2023-04-24T21:30:47;1955.51;;;978.73;;
50563;SDS011;36514;52.590;21.448;2023-04-24T21:40:44;1597.24;;;937.65;;
50563;SDS011;36514;52.590;21.448;2023-04-24T21:50:42;1031.87;;;868.96;;
50563;SDS011;36514;52.590;21.448;2023-04-24T22:00:39;854.95;;;778.53;;
50563;SDS011;36514;52.590;21.448;2023-04-24T22:10:36;845.68;;;768.26;;
50563;SDS011;36514;52.590;21.448;2023-04-24T22:20:34;938.42;;;839.64;;
50563;SDS011;36514;52.590;21.448;2023-04-24T22:30:31;872.70;;;793.12;;
50563;SDS011;36514;52.590;21.448;2023-04-24T22:40:29;932.85;;;838.18;;
50563;SDS011;36514;52.590;21.448;2023-04-24T22:50:25;890.32;;;803.95;;
50563;SDS011;36514;52.590;21.448;2023-04-24T23:00:22;918.42;;;818.18;;
50563;SDS011;36514;52.590;21.448;2023-04-24T23:10:25;1510.00;;;907.63;;
50563;SDS011;36514;52.590;21.448;2023-04-24T23:20:21;1798.11;;;918.27;;
50563;SDS011;36514;52.590;21.448;2023-04-24T23:30:18;1539.83;;;958.73;;
50563;SDS011;36514;52.590;21.448;2023-04-24T23:40:15;1019.12;;;907.07;;
